Stations météo

réclame
Mon MeteoGroup
Lauwersoog aws, Pays-Bas (6277): Température de l'air & dewpoint: 11.07.2018 13:00:00 - 17.07.2018 13:00:00 (CEST)Lauwersoog aws, Pays-Bas (6277): Température de l'air 5cm: 11.07.2018 13:00:00 - 17.07.2018 13:00:00 (CEST)Lauwersoog aws, Pays-Bas (6277): Vitesse du vent & gusts: 11.07.2018 13:00:00 - 17.07.2018 13:00:00 (CEST)Lauwersoog aws, Pays-Bas (6277): Direction du vent: 11.07.2018 13:00:00 - 17.07.2018 13:00:00 (CEST)Lauwersoog aws, Pays-Bas (6277): Quantités de précipitations: 11.07.2018 13:00:00 - 17.07.2018 13:00:00 (CEST)
Date & Time tt [°C] td [°C] tt 5cm [°C] ff [km/h] ff [knt] fx [km/h] fx [knt] dd rr [mm]
17.07.2018 13:00:00 27,5 15,6 28,6 18 10 25 14 SSW 0,0
17.07.2018 12:00:00 26,8 15,7 28,2 11 6 18 10 S 0,0
17.07.2018 11:00:00 25,4 15,6 27,7 11 6 14 8 SSW 0,0
17.07.2018 10:00:00 24,0 16,2 25,7 11 6 18 10 S 0,0
17.07.2018 09:00:00 21,6 15,9 22,8 14 8 18 10 S 0,0
17.07.2018 08:00:00 19,1 14,5 19,1 7 4 11 6 ESE 0,0
17.07.2018 07:00:00 18,4 14,5 18,1 7 4 11 6 S 0,0
17.07.2018 06:00:00 16,5 14,6 15,1 4 2 22 12 SSE 0,0
17.07.2018 05:00:00 16,5 14,3 15,2 11 6 18 10 S 0,0
17.07.2018 04:00:00 17,0 14,3 15,4 4 2 18 10 SSE 0,0
17.07.2018 03:00:00 18,0 13,4 17,0 14 8 22 12 ESE 0,0
17.07.2018 02:00:00 18,3 13,7 17,3 11 6 18 10 ESE 0,0
17.07.2018 01:00:00 18,9 14,0 17,9 11 6 22 12 E 0,0
17.07.2018 00:00:00 19,3 15,0 18,5 18 10 29 16 E 0,0
16.07.2018 23:00:00 20,3 16,3 19,5 22 12 32 18 E 0,0
16.07.2018 22:00:00 20,8 16,1 20,2 25 14 32 18 E 0,0
16.07.2018 21:00:00 22,2 16,2 21,8 22 12 32 18 ENE 0,0
16.07.2018 20:00:00 22,8 15,5 22,8 25 14 32 18 ENE 0,0
16.07.2018 19:00:00 23,2 15,8 23,6 29 16 36 19 ENE 0,0
16.07.2018 18:00:00 23,3 16,0 23,6 32 18 36 19 ENE 0,0
16.07.2018 17:00:00 22,8 16,1 23,9 29 16 36 19 NE 0,0
16.07.2018 16:00:00 23,3 17,2 24,6 29 16 32 18 NE 0,0
16.07.2018 15:00:00 23,2 18,0 25,2 29 16 32 18 NE 0,0
16.07.2018 14:00:00 24,3 17,6 25,4 22 12 29 16 NE 0,0
16.07.2018 13:00:00 23,2 17,8 24,9 25 14 29 16 NE 0,0
16.07.2018 12:00:00 26,4 13,1 28,6 7 4 14 8 NE 0,0
16.07.2018 11:00:00 24,7 12,5 27,1 11 6 18 10 S 0,0
16.07.2018 10:00:00 23,6 14,0 25,1 11 6 18 10 SE 0,0
16.07.2018 09:00:00 21,0 14,4 22,4 11 6 18 10 SSE 0,0
16.07.2018 08:00:00 18,5 13,0 18,3 14 8 22 12 ESE 0,0
16.07.2018 07:00:00 16,7 13,0 16,1 14 8 22 12 SE 0,0
16.07.2018 06:00:00 15,5 12,8 14,6 14 8 22 12 ESE 0,0
16.07.2018 05:00:00 15,2 12,3 14,4 14 8 22 12 ESE 0,0
16.07.2018 04:00:00 15,6 12,2 14,8 14 8 25 14 ESE 0,0
16.07.2018 03:00:00 16,1 11,9 15,3 18 10 25 14 ESE 0,0
16.07.2018 02:00:00 16,7 11,9 15,9 14 8 25 14 E 0,0
16.07.2018 01:00:00 17,3 11,7 16,5 18 10 25 14 E 0,0
16.07.2018 00:00:00 18,4 13,3 17,7 22 12 32 18 E 0,0
15.07.2018 23:00:00 19,7 14,4 19,0 29 16 32 18 E 0,0
15.07.2018 22:00:00 20,3 15,2 19,6 25 14 32 18 ENE 0,0
15.07.2018 21:00:00 20,9 15,5 20,5 25 14 32 18 ENE 0,0
15.07.2018 20:00:00 21,4 15,5 21,5 29 16 32 18 ENE 0,0
15.07.2018 19:00:00 22,0 15,8 22,3 29 16 32 18 ENE 0,0
15.07.2018 18:00:00 22,5 16,5 23,3 29 16 32 18 NE 0,0
15.07.2018 17:00:00 22,5 16,7 23,5 25 14 32 18 NE 0,0
15.07.2018 16:00:00 22,6 15,6 24,4 25 14 29 16 NE 0,0
15.07.2018 15:00:00 22,1 15,5 23,7 25 14 25 14 NE 0,0
15.07.2018 14:00:00 21,5 15,1 23,0 22 12 25 14 ENE 0,0
15.07.2018 13:00:00 23,3 14,0 25,3 11 6 18 10 NNE 0,0
15.07.2018 12:00:00 22,5 11,8 26,0 7 4 14 8 N 0,0
15.07.2018 11:00:00 21,7 11,2 24,4 11 6 14 8 SSE 0,0
15.07.2018 10:00:00 19,5 13,4 20,8 7 4 14 8 SSE 0,0
15.07.2018 09:00:00 17,8 13,3 18,5 11 6 18 10 SSE 0,0
15.07.2018 08:00:00 16,3 13,2 16,0 14 8 18 10 SSE 0,0
15.07.2018 07:00:00 14,6 12,7 14,2 14 8 18 10 SSE 0,0
15.07.2018 06:00:00 13,6 12,4 12,7 11 6 18 10 SSE 0,0
15.07.2018 05:00:00 13,7 12,3 12,8 11 6 18 10 SSE 0,0
15.07.2018 04:00:00 13,9 12,4 13,0 11 6 18 10 SE 0,0
15.07.2018 03:00:00 14,3 12,2 13,4 11 6 14 8 SE 0,0
15.07.2018 02:00:00 14,5 12,5 13,1 7 4 14 8 SSE 0,0
15.07.2018 01:00:00 15,0 12,0 13,9 11 6 14 8 SE 0,0
15.07.2018 00:00:00 15,7 12,1 14,4 7 4 14 8 ESE 0,0
14.07.2018 23:00:00 17,0 12,1 15,9 11 6 14 8 NE 0,0
14.07.2018 22:00:00 16,9 12,1 16,0 11 6 18 10 NE 0,0
14.07.2018 21:00:00 17,5 12,0 17,2 11 6 18 10 NNE 0,0
14.07.2018 20:00:00 18,5 12,0 18,8 14 8 18 10 NNE 0,0
14.07.2018 19:00:00 18,9 10,8 20,4 14 8 22 12 N 0,0
14.07.2018 18:00:00 19,5 11,2 21,3 14 8 22 12 N 0,0
14.07.2018 17:00:00 20,0 11,5 22,1 14 8 25 14 N 0,0
14.07.2018 16:00:00 19,9 11,8 22,5 14 8 18 10 NNW 0,0
14.07.2018 15:00:00 20,3 12,1 22,7 11 6 18 10 NNW 0,0
14.07.2018 14:00:00 19,7 12,9 22,0 14 8 22 12 NNW 0,0
14.07.2018 13:00:00 19,3 12,8 22,0 18 10 22 12 NNW 0,0
14.07.2018 12:00:00 19,0 12,6 21,4 18 10 22 12 NW 0,0
14.07.2018 11:00:00 17,8 12,1 19,0 18 10 29 16 NW 0,0
14.07.2018 10:00:00 18,2 12,0 20,1 14 8 22 12 WNW 0,0
14.07.2018 09:00:00 17,6 10,3 18,0 4 2 18 10 NNW 0,0
14.07.2018 08:00:00 17,0 11,8 17,0 4 2 14 8 N 0,0
14.07.2018 07:00:00 16,2 12,0 16,0 18 10 29 16 NNW 0,0
14.07.2018 06:00:00 16,3 10,4 15,8 7 4 22 12 WNW 0,0
14.07.2018 05:00:00 16,4 11,0 15,7 11 6 18 10 NNW 0,0
14.07.2018 04:00:00 16,2 12,6 15,6 11 6 14 8 NNW 0,0
14.07.2018 03:00:00 16,1 11,7 15,4 11 6 14 8 NNW 0,0
14.07.2018 02:00:00 16,1 10,7 15,4 11 6 18 10 N 0,0
14.07.2018 01:00:00 16,6 12,3 16,2 14 8 18 10 N 0,0
14.07.2018 00:00:00 16,6 12,6 16,3 14 8 22 12 N 0,0
13.07.2018 23:00:00 16,7 12,7 16,4 11 6 18 10 N 0,0
13.07.2018 22:00:00 16,8 12,2 16,4 14 8 22 12 N 0,0
13.07.2018 21:00:00 16,9 12,1 16,7 11 6 22 12 NNW 0,0
13.07.2018 20:00:00 17,1 11,6 17,3 14 8 25 14 N 0,0
13.07.2018 19:00:00 17,6 12,2 18,0 14 8 22 12 NW 0,0
13.07.2018 18:00:00 17,6 13,1 18,2 18 10 22 12 N 0,0
13.07.2018 17:00:00 18,2 12,5 19,6 18 10 22 12 NNW 0,0
13.07.2018 16:00:00 18,4 12,9 19,7 14 8 22 12 NNW 0,0
13.07.2018 15:00:00 18,1 12,4 19,4 18 10 22 12 NW 0,0
13.07.2018 14:00:00 17,7 12,6 19,3 18 10 22 12 NW 0,0
13.07.2018 13:00:00 17,3 12,5 18,9 14 8 22 12 NW 0,0
13.07.2018 12:00:00 17,6 12,9 18,6 14 8 - - NNW 0,0
13.07.2018 11:00:00 16,8 13,2 17,3 - - - - - 0,0
13.07.2018 10:00:00 16,3 12,8 16,7 14 8 25 14 NNW 0,0
13.07.2018 09:00:00 16,4 13,3 16,5 18 10 29 16 NNW 0,0
13.07.2018 08:00:00 16,2 13,0 16,1 22 12 32 18 NNW 0,0
13.07.2018 07:00:00 16,0 12,8 15,8 25 14 29 16 N 0,0
13.07.2018 06:00:00 15,9 13,2 15,4 22 12 29 16 NNW 0,0
13.07.2018 05:00:00 15,9 13,3 15,3 22 12 25 14 N 0,0
13.07.2018 04:00:00 15,9 13,2 15,2 18 10 29 16 N 0,0
13.07.2018 03:00:00 15,9 13,1 15,2 22 12 29 16 NNW 0,0
13.07.2018 02:00:00 16,2 13,2 15,2 18 10 25 14 NNW 0,0
13.07.2018 01:00:00 16,1 13,2 15,4 22 12 29 16 N 0,0
13.07.2018 00:00:00 16,2 13,3 15,4 25 14 29 16 NNW 0,0
12.07.2018 23:00:00 16,4 13,6 15,6 25 14 32 18 NNW 0,0
12.07.2018 22:00:00 16,7 14,0 16,0 29 16 32 18 NNW 0,0
12.07.2018 21:00:00 17,4 14,3 16,9 29 16 32 18 NNW 0,0
12.07.2018 20:00:00 18,0 14,0 18,2 25 14 36 19 NW 0,0
12.07.2018 19:00:00 18,7 14,2 19,6 29 16 32 18 NW 0,0
12.07.2018 18:00:00 19,0 14,4 20,6 25 14 32 18 NW 0,0
12.07.2018 17:00:00 19,5 14,3 21,6 25 14 29 16 NW 0,0
12.07.2018 16:00:00 19,4 14,6 21,8 22 12 29 16 NW 0,0
12.07.2018 15:00:00 19,3 14,3 22,0 25 14 29 16 NW 0,0
12.07.2018 14:00:00 19,6 14,6 22,2 22 12 29 16 NW 0,0
12.07.2018 13:00:00 19,3 14,6 22,0 22 12 25 14 NW 0,0
12.07.2018 12:00:00 18,1 14,4 20,0 18 10 25 14 NW 0,0
12.07.2018 11:00:00 17,2 14,5 18,3 18 10 25 14 NNW 0,0
12.07.2018 10:00:00 16,6 14,9 16,5 18 10 29 16 NNW 0,0
12.07.2018 09:00:00 16,4 15,1 16,3 25 14 32 18 NNW 0,0
12.07.2018 08:00:00 16,6 14,9 16,5 32 18 36 19 NNW 0,0
12.07.2018 07:00:00 16,5 15,1 16,1 22 12 32 18 NNW 0,0
12.07.2018 06:00:00 16,5 15,4 15,9 25 14 29 16 NNW 0,0
12.07.2018 05:00:00 16,5 15,5 16,0 25 14 32 18 NNW 0,0
12.07.2018 04:00:00 17,0 15,6 16,4 25 14 32 18 NNW 0,0
12.07.2018 03:00:00 17,1 15,4 16,2 22 12 29 16 NNW 0,0
12.07.2018 02:00:00 17,3 15,5 16,5 22 12 32 18 NNW 0,0
12.07.2018 01:00:00 17,6 15,2 16,9 25 14 36 19 N 0,0
12.07.2018 00:00:00 17,8 15,0 17,0 29 16 36 19 N 0,0
11.07.2018 23:00:00 18,0 14,8 17,3 29 16 36 19 N 0,0
11.07.2018 22:00:00 18,4 14,8 17,7 29 16 32 18 N 0,0
11.07.2018 21:00:00 19,0 15,2 18,5 25 14 36 19 N 0,0
11.07.2018 20:00:00 20,2 15,3 20,3 32 18 40 21 N 0,0
11.07.2018 19:00:00 20,4 14,5 21,3 29 16 32 18 N 0,0
11.07.2018 18:00:00 21,4 15,7 22,8 29 16 32 18 N 0,0
11.07.2018 17:00:00 22,0 15,2 23,9 25 14 29 16 N 0,0
11.07.2018 16:00:00 23,0 15,6 24,6 25 14 29 16 N 0,0
11.07.2018 15:00:00 21,5 14,9 23,4 25 14 32 18 N 0,0
11.07.2018 14:00:00 20,9 14,7 22,0 29 16 36 19 N 0,0
11.07.2018 13:00:00 20,8 13,6 22,8 32 18 40 21 N 0,0

tt = Température de l'air
td = dewpoint
tt 5cm = Température de l'air 5cm
ff = Vitesse du vent
fx = gusts
dd = Direction du vent
rr = Quantités de précipitations

stations d'obs. à proximité